createdAt,value
2022-09-21T00:01:29.689Z,1.00
2022-09-21T00:04:04.595Z,1.00
2022-09-21T00:06:34.711Z,1.00
2022-09-21T00:09:04.141Z,99.90
2022-09-21T00:11:35.235Z,26.10
2022-09-21T00:14:08.128Z,2.70
2022-09-21T00:16:35.606Z,1.00
2022-09-21T00:19:02.832Z,1.00
2022-09-21T00:21:30.591Z,1.00
2022-09-21T00:23:59.497Z,1.00
2022-09-21T00:26:27.855Z,1.00
2022-09-21T00:29:00.801Z,1.00
2022-09-21T00:31:31.140Z,1.00
2022-09-21T00:34:00.383Z,1.00
2022-09-21T00:36:28.472Z,1.00
2022-09-21T00:38:59.311Z,1.00
2022-09-21T00:41:27.359Z,1.00
2022-09-21T00:44:32.465Z,1.00
2022-09-21T00:47:14.960Z,86.10
2022-09-21T00:49:46.051Z,1.00
2022-09-21T00:52:14.946Z,1.00
2022-09-21T00:54:54.528Z,43.10
2022-09-21T00:57:25.456Z,28.80
2022-09-21T00:59:56.530Z,95.70
2022-09-21T01:02:24.309Z,1.00
2022-09-21T01:04:54.176Z,1.00
2022-09-21T01:07:28.493Z,1.00
2022-09-21T01:10:00.467Z,1.00
2022-09-21T01:13:10.478Z,99.90
2022-09-21T01:16:04.873Z,99.90
2022-09-21T01:19:34.828Z,99.90
2022-09-21T01:22:37.403Z,99.90
2022-09-21T01:25:41.679Z,76.10
2022-09-21T01:28:55.021Z,99.90
2022-09-21T01:31:33.889Z,99.90
2022-09-21T01:34:09.786Z,10.50
2022-09-21T01:36:38.542Z,99.90
2022-09-21T01:39:12.167Z,99.90
2022-09-21T01:41:42.101Z,99.90
2022-09-21T01:44:21.123Z,1.00
2022-09-21T01:46:49.482Z,1.00
2022-09-21T01:49:30.481Z,1.00
2022-09-21T01:52:07.428Z,1.00
2022-09-21T01:54:49.536Z,1.00
2022-09-21T01:57:43.647Z,99.90
2022-09-21T02:00:11.629Z,99.90
2022-09-21T02:02:59.594Z,99.90
2022-09-21T02:05:30.436Z,99.90
2022-09-21T02:07:59.043Z,99.90
2022-09-21T02:10:43.061Z,99.90
2022-09-21T02:13:10.343Z,99.90
2022-09-21T02:15:40.778Z,99.90
2022-09-21T02:18:26.874Z,1.00
2022-09-21T02:20:58.833Z,99.90
2022-09-21T02:23:33.496Z,99.90
2022-09-21T02:26:07.970Z,99.90
2022-09-21T02:29:06.788Z,99.90
2022-09-21T02:31:49.078Z,1.00
2022-09-21T02:34:20.810Z,99.90
2022-09-21T02:36:57.213Z,99.90
2022-09-21T02:39:39.260Z,99.90
2022-09-21T02:42:16.841Z,99.90
2022-09-21T02:44:52.517Z,1.00
2022-09-21T02:47:27.283Z,1.00
2022-09-21T02:50:01.199Z,1.00
2022-09-21T02:52:31.627Z,1.00
2022-09-21T02:54:59.375Z,1.00
2022-09-21T02:57:26.874Z,1.00
2022-09-21T02:59:53.780Z,1.00
2022-09-21T03:02:20.644Z,99.90
2022-09-21T03:04:49.417Z,1.00
2022-09-21T03:07:17.717Z,1.00
2022-09-21T03:09:45.142Z,1.00
2022-09-21T03:12:12.077Z,1.00
2022-09-21T03:14:39.205Z,1.00
2022-09-21T03:17:06.120Z,1.00
2022-09-21T03:19:33.013Z,1.00
2022-09-21T03:22:00.196Z,1.00
2022-09-21T03:24:45.707Z,1.00
2022-09-21T03:27:14.705Z,1.00
2022-09-21T03:29:41.631Z,99.90
2022-09-21T03:32:08.594Z,1.00
2022-09-21T03:34:35.981Z,1.00
2022-09-21T03:37:05.305Z,1.00
2022-09-21T03:39:32.157Z,1.00
2022-09-21T03:41:59.252Z,99.90
2022-09-21T03:44:26.809Z,99.90
2022-09-21T03:46:53.930Z,18.20
2022-09-21T03:49:20.970Z,99.90
2022-09-21T03:51:47.918Z,99.90
2022-09-21T03:54:14.899Z,99.90
2022-09-21T03:56:41.888Z,99.90
2022-09-21T03:59:13.304Z,99.90
2022-09-21T04:01:40.752Z,1.00
2022-09-21T04:04:07.679Z,99.90
2022-09-21T04:06:34.774Z,1.00
2022-09-21T04:09:03.866Z,99.90
2022-09-21T04:11:32.451Z,10.60
2022-09-21T04:13:59.961Z,1.00
2022-09-21T04:16:27.522Z,99.90
2022-09-21T04:18:54.593Z,1.00
2022-09-21T04:21:22.362Z,1.00
2022-09-21T04:23:49.966Z,1.00
2022-09-21T04:26:32.681Z,1.00
2022-09-21T04:29:00.784Z,1.00
2022-09-21T04:31:29.432Z,1.00
2022-09-21T04:33:57.804Z,21.40
2022-09-21T04:36:26.483Z,16.90
2022-09-21T04:38:53.453Z,1.00
2022-09-21T04:41:20.342Z,1.00
2022-09-21T04:43:48.973Z,17.70
2022-09-21T04:46:20.080Z,99.90
2022-09-21T04:48:47.973Z,67.30
2022-09-21T04:51:17.350Z,99.90
2022-09-21T04:53:44.797Z,1.00
2022-09-21T04:56:15.379Z,82.20
2022-09-21T04:58:42.965Z,1.00
2022-09-21T05:01:10.482Z,99.90
2022-09-21T05:03:37.485Z,99.90
2022-09-21T05:06:05.422Z,99.90
2022-09-21T05:08:50.667Z,1.00
2022-09-21T05:11:19.832Z,1.00
2022-09-21T05:13:47.971Z,99.90
2022-09-21T05:16:16.776Z,1.00
2022-09-21T05:18:44.541Z,99.90
2022-09-21T05:21:15.614Z,99.90
2022-09-21T05:23:42.607Z,99.90
2022-09-21T05:26:09.556Z,99.90
2022-09-21T05:28:40.100Z,99.90
2022-09-21T05:31:18.136Z,99.90
2022-09-21T05:34:13.059Z,99.90
2022-09-21T05:36:59.287Z,99.90
2022-09-21T05:39:26.764Z,65.00
2022-09-21T05:41:54.193Z,99.90
2022-09-21T05:44:21.759Z,99.90
2022-09-21T05:47:35.231Z,99.90
2022-09-21T05:50:23.819Z,99.90
2022-09-21T05:53:15.676Z,99.90
2022-09-21T05:56:11.256Z,99.90
2022-09-21T05:58:59.820Z,99.90
2022-09-21T06:02:05.770Z,1.00
2022-09-21T06:04:33.073Z,1.00
2022-09-21T06:07:00.087Z,99.90
2022-09-21T06:09:27.958Z,1.00
2022-09-21T06:11:54.901Z,1.00
2022-09-21T06:14:25.628Z,1.00
2022-09-21T06:16:53.745Z,1.00
2022-09-21T06:19:20.706Z,1.00
2022-09-21T06:21:47.614Z,76.60
2022-09-21T06:24:14.492Z,81.50
2022-09-21T06:26:41.467Z,99.90
2022-09-21T06:29:08.330Z,99.90
2022-09-21T06:31:36.426Z,99.90
2022-09-21T06:34:03.775Z,99.90
2022-09-21T06:36:31.938Z,99.90
2022-09-21T06:38:58.834Z,99.90
2022-09-21T06:41:25.687Z,99.90
2022-09-21T06:43:57.175Z,99.90
2022-09-21T06:46:24.252Z,99.90
2022-09-21T06:48:51.132Z,99.90
2022-09-21T06:51:20.842Z,99.90
2022-09-21T06:53:48.415Z,1.00
2022-09-21T06:56:16.005Z,1.00
2022-09-21T06:58:42.859Z,99.90
2022-09-21T07:01:12.894Z,24.30
2022-09-21T07:03:42.189Z,1.00
2022-09-21T07:06:11.875Z,1.00
2022-09-21T07:11:27.626Z,24.30
2022-09-21T07:13:56.081Z,6.70
2022-09-21T07:16:24.298Z,1.00
2022-09-21T07:18:51.169Z,99.90
2022-09-21T07:21:18.068Z,99.90
2022-09-21T07:23:44.887Z,99.90
2022-09-21T07:26:14.130Z,99.90
2022-09-21T07:28:42.150Z,99.90
2022-09-21T07:31:10.692Z,99.90
2022-09-21T07:33:38.027Z,99.90
2022-09-21T07:36:10.329Z,1.00
2022-09-21T07:38:43.961Z,99.90
2022-09-21T07:41:13.502Z,99.90
2022-09-21T07:43:41.376Z,99.90
2022-09-21T07:46:11.652Z,99.90
2022-09-21T07:48:39.417Z,99.90
2022-09-21T07:51:11.147Z,99.90
2022-09-21T07:53:40.238Z,99.90
2022-09-21T07:56:12.514Z,42.80
2022-09-21T07:58:58.313Z,73.60
2022-09-21T08:01:26.685Z,24.90
2022-09-21T08:03:56.106Z,25.00
2022-09-21T08:06:25.625Z,1.00
2022-09-21T08:08:57.422Z,1.00
2022-09-21T08:11:26.395Z,1.00
2022-09-21T08:13:56.036Z,1.00
2022-09-21T08:16:23.109Z,1.00
2022-09-21T08:18:51.487Z,1.00
2022-09-21T08:21:20.355Z,1.00
2022-09-21T08:23:49.350Z,1.00
2022-09-21T08:26:19.657Z,1.00
2022-09-21T08:28:49.851Z,1.00
2022-09-21T08:31:19.664Z,1.00
2022-09-21T08:33:48.235Z,1.00
2022-09-21T08:36:15.346Z,1.00
2022-09-21T08:38:42.337Z,99.90
2022-09-21T08:41:46.359Z,99.90
2022-09-21T08:44:51.066Z,99.90
2022-09-21T08:47:33.695Z,99.90
2022-09-21T08:50:02.956Z,99.90
2022-09-21T08:52:32.458Z,1.00
2022-09-21T08:55:06.474Z,1.00
2022-09-21T08:57:34.608Z,1.00
2022-09-21T09:00:02.982Z,1.00
2022-09-21T09:03:02.581Z,1.00
2022-09-21T09:05:44.459Z,1.00
2022-09-21T09:08:37.080Z,1.00
2022-09-21T09:11:34.765Z,1.00
2022-09-21T09:14:41.681Z,99.90
2022-09-21T09:18:05.407Z,99.90
2022-09-21T09:20:58.616Z,99.90
2022-09-21T09:23:50.136Z,99.90
2022-09-21T09:26:29.477Z,97.20
2022-09-21T09:29:06.691Z,1.00
2022-09-21T09:31:37.468Z,1.00
2022-09-21T09:34:25.033Z,99.90
2022-09-21T09:36:59.860Z,99.90
2022-09-21T09:39:30.082Z,1.00
2022-09-21T09:42:12.847Z,1.00
2022-09-21T09:45:25.666Z,1.00
2022-09-21T09:48:08.198Z,1.00
2022-09-21T09:50:40.164Z,1.00
2022-09-21T09:53:15.955Z,1.00
2022-09-21T09:55:47.929Z,1.00
2022-09-21T09:58:26.333Z,1.00
2022-09-21T10:00:58.775Z,99.90
2022-09-21T10:03:28.007Z,99.90
2022-09-21T10:05:55.600Z,99.90
2022-09-21T10:08:43.855Z,11.60
2022-09-21T10:11:14.890Z,99.90
2022-09-21T10:13:45.971Z,99.90
2022-09-21T10:16:19.058Z,99.90
2022-09-21T10:19:01.344Z,99.90
2022-09-21T10:21:40.711Z,99.90
2022-09-21T10:24:36.324Z,99.90
2022-09-21T10:27:11.726Z,99.90
2022-09-21T10:29:47.850Z,99.90
2022-09-21T10:32:23.257Z,1.00
2022-09-21T10:35:15.856Z,1.00
2022-09-21T10:37:47.180Z,99.90
2022-09-21T10:40:20.260Z,1.00
2022-09-21T10:42:51.708Z,1.00
2022-09-21T10:45:43.457Z,99.90
2022-09-21T10:48:16.750Z,1.00
2022-09-21T10:50:45.839Z,99.90
2022-09-21T10:53:25.021Z,1.00
2022-09-21T10:56:16.374Z,99.90
2022-09-21T10:59:21.592Z,1.00
2022-09-21T11:01:52.357Z,1.00
2022-09-21T11:05:20.108Z,1.00
2022-09-21T11:08:15.456Z,99.90
2022-09-21T11:11:02.746Z,99.90
2022-09-21T11:14:12.272Z,7.50
2022-09-21T11:16:55.795Z,4.10
2022-09-21T11:19:39.085Z,1.00
2022-09-21T11:22:08.734Z,99.90
2022-09-21T11:25:07.195Z,99.90
2022-09-21T11:27:42.988Z,99.90
2022-09-21T11:30:18.820Z,1.00
2022-09-21T11:33:31.850Z,1.00
2022-09-21T11:36:24.618Z,1.00
2022-09-21T11:39:28.453Z,1.00
2022-09-21T11:42:30.576Z,1.00
2022-09-21T11:45:03.717Z,1.00
2022-09-21T11:47:53.670Z,1.00
2022-09-21T11:51:01.697Z,99.90
2022-09-21T11:54:26.090Z,49.50
2022-09-21T11:57:25.387Z,99.90
2022-09-21T12:00:15.760Z,99.90
2022-09-21T12:03:19.774Z,99.90
2022-09-21T12:06:17.953Z,1.00
2022-09-21T12:09:33.504Z,1.00
2022-09-21T12:12:45.315Z,99.90
2022-09-21T12:15:32.307Z,99.90
2022-09-21T12:18:30.962Z,99.90
2022-09-21T12:21:11.700Z,99.90
2022-09-21T12:24:15.052Z,99.90
2022-09-21T12:27:00.593Z,99.90
2022-09-21T12:29:48.224Z,67.50
2022-09-21T12:32:49.601Z,1.00
2022-09-21T12:35:43.346Z,1.00
2022-09-21T12:39:01.415Z,1.00
2022-09-21T12:42:25.516Z,1.00
2022-09-21T12:45:30.024Z,1.00
2022-09-21T12:48:12.285Z,99.90
2022-09-21T12:50:48.395Z,99.90
2022-09-21T12:53:23.146Z,1.00
2022-09-21T12:56:13.233Z,1.00
2022-09-21T12:59:12.653Z,99.90
2022-09-21T13:02:12.246Z,99.90
2022-09-21T13:05:39.672Z,99.90
2022-09-21T13:08:16.173Z,15.10
2022-09-21T13:11:04.826Z,99.90
2022-09-21T13:13:50.175Z,9.60
2022-09-21T13:16:34.663Z,1.00
2022-09-21T13:19:13.803Z,1.00
2022-09-21T13:21:42.192Z,1.00
2022-09-21T13:24:30.204Z,1.00
2022-09-21T13:27:00.091Z,1.00
2022-09-21T13:29:40.010Z,1.00
2022-09-21T13:32:12.813Z,1.00
2022-09-21T13:34:42.617Z,1.00
2022-09-21T13:37:15.616Z,1.00
2022-09-21T13:40:04.085Z,1.00
2022-09-21T13:42:34.443Z,1.00
2022-09-21T13:45:24.665Z,1.00
2022-09-21T13:47:55.540Z,99.90
2022-09-21T13:50:42.250Z,99.90
2022-09-21T13:53:20.185Z,99.90
2022-09-21T13:56:09.098Z,99.90
2022-09-21T13:58:47.197Z,99.90
2022-09-21T14:01:45.302Z,99.90
2022-09-21T14:04:31.104Z,99.90
2022-09-21T14:07:03.767Z,99.90
2022-09-21T14:09:37.877Z,99.90
2022-09-21T14:12:10.523Z,99.90
2022-09-21T14:14:41.430Z,99.90
2022-09-21T14:17:38.181Z,99.90
2022-09-21T14:20:35.788Z,99.90
2022-09-21T14:23:19.342Z,99.90
2022-09-21T14:25:56.450Z,99.90
2022-09-21T14:28:39.035Z,99.90
2022-09-21T14:31:18.215Z,99.90
2022-09-21T14:33:50.420Z,99.90
2022-09-21T14:36:23.739Z,99.90
2022-09-21T14:39:00.562Z,99.90
2022-09-21T14:41:37.008Z,99.90
2022-09-21T14:44:04.650Z,99.90
2022-09-21T14:47:08.165Z,1.00
2022-09-21T14:50:04.186Z,99.90
2022-09-21T14:53:00.114Z,99.90
2022-09-21T14:55:50.405Z,99.90
2022-09-21T14:58:52.142Z,1.00
2022-09-21T15:01:34.434Z,99.90
2022-09-21T15:04:46.025Z,99.90
2022-09-21T15:07:56.753Z,99.90
2022-09-21T15:11:09.157Z,99.90
2022-09-21T15:13:43.374Z,99.90
2022-09-21T15:16:27.624Z,99.90
2022-09-21T15:19:16.290Z,99.90
2022-09-21T15:21:47.356Z,99.90
2022-09-21T15:24:48.017Z,99.90
2022-09-21T15:27:17.448Z,99.90
2022-09-21T15:29:49.069Z,99.90
2022-09-21T15:32:25.221Z,99.90
2022-09-21T15:35:02.171Z,99.90
2022-09-21T15:37:35.077Z,99.90
2022-09-21T15:40:06.412Z,99.90
2022-09-21T15:42:42.528Z,99.90
2022-09-21T15:45:18.411Z,99.90
2022-09-21T15:47:45.582Z,99.90
2022-09-21T15:50:15.018Z,99.90
2022-09-21T15:53:10.215Z,99.90
2022-09-21T15:55:37.360Z,99.90
2022-09-21T15:58:37.279Z,99.90
2022-09-21T16:01:15.636Z,99.90
2022-09-21T16:03:43.506Z,99.90
2022-09-21T16:06:22.610Z,99.90
2022-09-21T16:08:49.699Z,99.90
2022-09-21T16:11:29.086Z,99.90
2022-09-21T16:14:35.243Z,99.90
2022-09-21T16:17:17.450Z,99.90
2022-09-21T16:19:51.596Z,99.90
2022-09-21T16:22:41.250Z,99.90
2022-09-21T16:25:37.676Z,99.90
2022-09-21T16:28:17.901Z,99.90
2022-09-21T16:30:53.579Z,99.90
2022-09-21T16:33:48.934Z,99.90
2022-09-21T16:36:25.571Z,99.90
2022-09-21T16:38:56.163Z,99.90
2022-09-21T16:41:27.179Z,99.90
2022-09-21T16:43:57.333Z,99.90
2022-09-21T16:46:26.645Z,99.90
2022-09-21T16:48:55.084Z,99.90
2022-09-21T16:51:25.477Z,99.90
2022-09-21T16:53:52.553Z,99.90
2022-09-21T16:56:20.108Z,99.90
2022-09-21T16:58:47.378Z,99.90
2022-09-21T17:01:20.844Z,99.90
2022-09-21T17:03:48.261Z,99.90
2022-09-21T17:06:21.569Z,99.90
2022-09-21T17:08:49.891Z,99.90
2022-09-21T17:11:21.940Z,99.90
2022-09-21T17:13:54.371Z,99.90
2022-09-21T17:16:22.031Z,99.90
2022-09-21T17:18:49.599Z,99.90
2022-09-21T17:21:17.422Z,99.90
2022-09-21T17:23:45.396Z,99.90
2022-09-21T17:26:19.335Z,99.90
2022-09-21T17:28:46.694Z,99.90
2022-09-21T17:31:16.607Z,99.90
2022-09-21T17:33:44.927Z,99.90
2022-09-21T17:36:16.621Z,99.90
2022-09-21T17:38:44.377Z,99.90
2022-09-21T17:41:27.844Z,99.90
2022-09-21T17:44:13.712Z,99.90
2022-09-21T17:47:17.923Z,99.90
2022-09-21T17:49:46.556Z,99.90
2022-09-21T17:52:40.789Z,99.90
2022-09-21T17:55:11.946Z,99.90
2022-09-21T17:57:59.154Z,99.90
2022-09-21T18:01:04.514Z,99.90
2022-09-21T18:03:41.221Z,99.90
2022-09-21T18:06:10.061Z,99.90
2022-09-21T18:08:39.244Z,99.90
2022-09-21T18:11:24.994Z,99.90
2022-09-21T18:14:11.630Z,99.90
2022-09-21T18:17:07.859Z,99.90
2022-09-21T18:20:14.639Z,99.90
2022-09-21T18:23:01.753Z,99.90
2022-09-21T18:25:47.754Z,99.90
2022-09-21T18:28:46.434Z,99.90
2022-09-21T18:31:46.392Z,99.90
2022-09-21T18:34:22.013Z,99.90
2022-09-21T18:37:08.252Z,99.90
2022-09-21T18:40:22.251Z,99.90
2022-09-21T18:42:56.026Z,99.90
2022-09-21T18:45:31.979Z,1.00
2022-09-21T18:48:33.721Z,99.90
2022-09-21T18:51:07.559Z,99.90
2022-09-21T18:53:53.627Z,99.90
2022-09-21T18:56:21.052Z,99.90
2022-09-21T18:58:49.618Z,99.90
2022-09-21T19:01:19.076Z,99.90
2022-09-21T19:03:46.690Z,99.90
2022-09-21T19:06:19.552Z,1.00
2022-09-21T19:09:14.575Z,99.90
2022-09-21T19:12:09.955Z,1.00
2022-09-21T19:15:06.885Z,1.00
2022-09-21T19:18:24.303Z,1.00
2022-09-21T19:21:13.497Z,1.00
2022-09-21T19:24:18.622Z,1.00
2022-09-21T19:27:28.595Z,1.00
2022-09-21T19:30:09.460Z,1.00
2022-09-21T19:33:02.564Z,1.00
2022-09-21T19:35:32.424Z,1.00
2022-09-21T19:38:04.042Z,1.00
2022-09-21T19:40:39.061Z,1.00
2022-09-21T19:43:21.070Z,1.00
2022-09-21T19:46:05.019Z,1.00
2022-09-21T19:48:45.361Z,1.00
2022-09-21T19:51:20.521Z,1.00
2022-09-21T19:54:15.401Z,1.00
2022-09-21T19:57:28.097Z,1.00
2022-09-21T19:59:55.270Z,1.00
2022-09-21T20:02:37.312Z,1.00
2022-09-21T20:05:28.776Z,1.00
2022-09-21T20:08:05.265Z,1.00
2022-09-21T20:10:53.071Z,1.00
2022-09-21T20:13:41.162Z,1.00
2022-09-21T20:16:45.983Z,1.00
2022-09-21T20:19:38.100Z,1.00
2022-09-21T20:22:14.671Z,1.00
2022-09-21T20:25:09.322Z,1.00
2022-09-21T20:27:53.418Z,1.00
2022-09-21T20:30:26.536Z,1.00
2022-09-21T20:33:01.957Z,1.00
2022-09-21T20:35:30.816Z,1.00
2022-09-21T20:38:02.182Z,1.00
2022-09-21T20:40:32.462Z,1.00
2022-09-21T20:43:01.229Z,1.00
2022-09-21T20:45:29.742Z,1.00
2022-09-21T20:48:15.745Z,1.00
2022-09-21T20:50:46.161Z,1.00
2022-09-21T20:53:13.684Z,1.00
2022-09-21T20:55:41.489Z,1.00
2022-09-21T20:58:12.940Z,1.00
2022-09-21T21:00:39.907Z,1.00
2022-09-21T21:03:06.869Z,1.00
2022-09-21T21:05:33.708Z,1.00
2022-09-21T21:08:00.723Z,1.00
2022-09-21T21:10:27.702Z,1.00
2022-09-21T21:12:55.025Z,1.00
2022-09-21T21:15:21.932Z,1.00
2022-09-21T21:17:49.349Z,1.00
2022-09-21T21:20:17.707Z,1.00
2022-09-21T21:22:49.048Z,1.00
2022-09-21T21:25:16.524Z,1.00
2022-09-21T21:27:43.484Z,1.00
2022-09-21T21:30:11.886Z,1.00
2022-09-21T21:32:38.719Z,1.00
2022-09-21T21:35:06.378Z,1.00
2022-09-21T21:37:33.272Z,1.00
2022-09-21T21:40:00.512Z,1.00
2022-09-21T21:42:29.554Z,1.00
2022-09-21T21:44:56.662Z,1.00
2022-09-21T21:47:40.535Z,1.00
2022-09-21T21:50:09.784Z,1.00
2022-09-21T21:52:37.501Z,1.00
2022-09-21T21:55:06.205Z,1.00
2022-09-21T21:57:33.302Z,1.00
2022-09-21T22:00:00.286Z,1.00
2022-09-21T22:02:29.321Z,1.00
2022-09-21T22:04:56.304Z,1.00
2022-09-21T22:07:23.196Z,1.00
2022-09-21T22:09:50.079Z,1.00
2022-09-21T22:12:17.021Z,1.00
2022-09-21T22:14:46.398Z,1.00
2022-09-21T22:17:13.622Z,1.00
2022-09-21T22:19:40.492Z,1.00
2022-09-21T22:22:07.351Z,1.00
2022-09-21T22:24:34.236Z,1.00
2022-09-21T22:27:01.144Z,1.00
2022-09-21T22:29:27.951Z,1.00
2022-09-21T22:31:55.605Z,1.00
2022-09-21T22:34:22.481Z,1.00
2022-09-21T22:36:50.276Z,1.00
2022-09-21T22:39:17.177Z,6.70
2022-09-21T22:41:44.014Z,59.50
2022-09-21T22:44:11.331Z,99.90
2022-09-21T22:46:39.125Z,99.90
2022-09-21T22:49:06.629Z,99.90
2022-09-21T22:51:34.090Z,99.90
2022-09-21T22:54:01.746Z,99.90
2022-09-21T22:56:31.608Z,99.90
2022-09-21T22:59:01.206Z,99.90
2022-09-21T23:01:37.858Z,99.90
2022-09-21T23:04:08.890Z,81.10
2022-09-21T23:06:38.711Z,99.90
2022-09-21T23:09:09.274Z,91.00
2022-09-21T23:11:47.488Z,70.10
2022-09-21T23:14:16.481Z,99.90
2022-09-21T23:16:43.878Z,99.90
2022-09-21T23:19:15.696Z,99.90
2022-09-21T23:21:46.175Z,99.90
2022-09-21T23:24:13.557Z,99.90
2022-09-21T23:26:40.602Z,99.90
2022-09-21T23:29:13.066Z,99.90
2022-09-21T23:31:44.715Z,99.90
2022-09-21T23:34:13.444Z,64.40
2022-09-21T23:36:41.756Z,91.70
2022-09-21T23:39:12.683Z,99.90
2022-09-21T23:41:40.129Z,99.90
2022-09-21T23:44:07.118Z,99.90
2022-09-21T23:46:37.055Z,99.90
2022-09-21T23:49:04.153Z,99.90
2022-09-21T23:51:32.287Z,99.90
2022-09-21T23:54:00.165Z,99.90
2022-09-21T23:56:28.539Z,99.90
2022-09-21T23:58:55.871Z,99.90
